Time;durP1;ratioP1;P1;durP2;ratioP2;P2;SDS_P1;SDS_P2;PMS_P1;PMS_P2;Temp;Humidity;BMP_temperature;BMP_pressure;BME280_temperature;BME280_humidity;BME280_pressure;Samples;Min_cycle;Max_cycle;Signal;HPM_P1;HPM_P2
2022/04/11 00:00:14;;;;;;;1.90;1.73;;;3.40;78.90;2.60;98644.00;;;;5097550;28;20724;-74
2022/04/11 00:02:40;;;;;;;2.67;1.53;;;3.40;78.80;2.50;98643.00;;;;5097145;28;20230;-74
2022/04/11 00:05:07;;;;;;;1.67;1.57;;;3.40;79.80;2.50;98640.00;;;;5115224;28;20597;-75
2022/04/11 00:07:35;;;;;;;2.27;1.80;;;3.30;79.80;2.60;98646.00;;;;5115229;28;20224;-74
2022/04/11 00:10:01;;;;;;;2.00;1.90;;;3.30;80.30;2.60;98645.00;;;;5115237;28;20188;-74
2022/04/11 00:12:34;;;;;;;1.37;1.33;;;3.30;80.30;2.60;98639.00;;;;5114627;28;20573;-74
2022/04/11 00:15:07;;;;;;;1.07;1.07;;;3.40;80.50;2.60;98635.00;;;;5096756;28;20255;-73
2022/04/11 00:17:37;;;;;;;1.23;1.23;;;3.40;79.90;2.40;98629.00;;;;5114568;28;20223;-74
2022/04/11 00:20:05;;;;;;;1.00;1.00;;;3.30;80.30;2.60;98633.00;;;;5114490;28;20295;-74
2022/04/11 00:22:35;;;;;;;1.00;1.00;;;3.30;80.90;2.60;98625.00;;;;5114698;28;20204;-74
2022/04/11 00:25:01;;;;;;;1.60;1.50;;;3.30;81.00;2.50;98572.00;;;;5114591;28;20646;-73
2022/04/11 00:27:28;;;;;;;0.93;0.93;;;3.40;80.10;2.40;98638.00;;;;5114621;28;20197;-74
2022/04/11 00:29:55;;;;;;;0.93;0.93;;;3.20;80.10;2.40;98624.00;;;;5115081;28;20239;-75
2022/04/11 00:32:21;;;;;;;2.03;1.93;;;3.20;80.80;2.40;98627.00;;;;5115668;28;20252;-74
2022/04/11 00:34:48;;;;;;;1.50;1.40;;;3.20;80.80;2.40;98624.00;;;;5117643;28;20251;-73
2022/04/11 00:37:14;;;;;;;1.37;1.33;;;3.10;81.10;2.30;98630.00;;;;5127691;28;20223;-75
2022/04/11 00:39:41;;;;;;;1.00;1.00;;;3.20;80.10;2.30;98616.00;;;;5126960;28;20221;-74
2022/04/11 00:42:12;;;;;;;1.77;1.67;;;3.10;81.10;2.20;98615.00;;;;5108888;28;20249;-75
2022/04/11 00:44:39;;;;;;;1.07;1.07;;;3.10;80.70;2.30;98618.00;;;;5123245;28;20207;-74
2022/04/11 00:47:06;;;;;;;2.10;2.00;;;3.10;81.10;2.30;98612.00;;;;5098689;28;20211;-73
2022/04/11 00:49:35;;;;;;;1.30;1.20;;;3.10;80.90;2.20;98610.00;;;;5114305;28;20201;-74
2022/04/11 00:52:01;;;;;;;1.33;1.33;;;3.10;80.00;2.30;98608.00;;;;5114104;28;20231;-74
2022/04/11 00:54:31;;;;;;;0.90;0.90;;;3.10;80.30;2.30;98609.00;;;;5096302;28;20299;-74
2022/04/11 00:56:59;;;;;;;1.80;1.47;;;3.00;80.00;2.30;98604.00;;;;5114041;28;20220;-74
2022/04/11 00:59:26;;;;;;;2.03;1.93;;;3.10;80.20;2.30;98598.00;;;;5114119;28;20244;-74
2022/04/11 01:01:54;;;;;;;1.50;1.47;;;3.10;80.30;2.20;98591.00;;;;5113983;28;20207;-74
2022/04/11 01:04:27;;;;;;;1.37;1.37;;;3.10;79.70;2.20;98597.00;;;;5096057;28;20254;-74
2022/04/11 01:06:54;;;;;;;1.00;1.00;;;3.00;80.30;2.10;98610.00;;;;5114041;28;20196;-74
2022/04/11 01:09:24;;;;;;;1.63;1.53;;;2.90;80.60;2.10;98597.00;;;;5113905;28;20217;-74
2022/04/11 01:11:54;;;;;;;1.73;1.63;;;2.90;81.80;2.20;98597.00;;;;5096267;28;20735;-73
2022/04/11 01:14:21;;;;;;;1.50;1.50;;;2.90;81.80;2.20;98617.00;;;;5096044;28;20814;-73
2022/04/11 01:16:48;;;;;;;0.97;0.97;;;3.00;81.00;2.10;98600.00;;;;5114096;28;20695;-73
2022/04/11 01:19:15;;;;;;;1.23;1.23;;;2.90;80.50;2.20;98590.00;;;;5095872;28;20259;-74
2022/04/11 01:21:42;;;;;;;1.00;1.00;;;3.00;81.00;2.20;98607.00;;;;5113847;28;20226;-73
2022/04/11 01:24:11;;;;;;;1.27;1.27;;;3.00;80.50;2.30;98610.00;;;;5113815;28;20204;-73
2022/04/11 01:26:38;;;;;;;0.90;0.90;;;3.00;80.30;2.20;98600.00;;;;5113706;28;20503;-73
2022/04/11 01:29:08;;;;;;;2.10;2.00;;;2.90;79.80;2.20;98575.00;;;;5113691;28;20608;-73
2022/04/11 01:31:35;;;;;;;1.10;1.10;;;2.90;80.40;2.20;98607.00;;;;5113580;28;20361;-72
2022/04/11 01:34:01;;;;;;;4.17;1.77;;;2.90;80.30;2.20;98600.00;;;;5113603;28;20717;-73
2022/04/11 01:36:28;;;;;;;2.23;1.60;;;2.90;80.40;2.20;98601.00;;;;5113500;28;20352;-73
2022/04/11 01:38:55;;;;;;;1.83;1.73;;;3.00;80.10;2.20;98596.00;;;;5113525;28;20220;-73
2022/04/11 01:41:22;;;;;;;3.00;1.97;;;3.00;79.90;2.10;98590.00;;;;5113629;28;20208;-74
2022/04/11 01:43:49;;;;;;;1.47;1.37;;;3.00;79.80;2.20;98592.00;;;;5113591;28;20251;-75
2022/04/11 01:46:16;;;;;;;1.70;1.60;;;2.90;80.50;2.20;98587.00;;;;5116250;28;20249;-75
2022/04/11 01:48:43;;;;;;;1.63;1.53;;;2.90;80.30;2.30;98591.00;;;;5117046;28;20223;-74
2022/04/11 01:51:11;;;;;;;1.00;1.00;;;3.00;81.00;2.30;98587.00;;;;5117071;28;20193;-73
2022/04/11 01:53:39;;;;;;;0.93;0.93;;;3.00;81.00;2.30;98583.00;;;;5116907;28;20666;-74
2022/04/11 01:56:06;;;;;;;0.93;0.93;;;3.10;81.00;2.30;98579.00;;;;5117015;28;20200;-74
2022/04/11 01:58:33;;;;;;;2.13;1.93;;;3.10;81.30;2.20;98577.00;;;;5116882;28;20232;-74
2022/04/11 02:01:00;;;;;;;1.40;1.30;;;3.10;82.50;2.20;98581.00;;;;5116869;28;20196;-75
2022/04/11 02:03:27;;;;;;;1.40;1.30;;;3.00;83.60;2.30;98566.00;;;;5116837;28;20272;-73
2022/04/11 02:05:53;;;;;;;1.13;1.13;;;3.00;85.70;2.20;98580.00;;;;5116896;28;20721;-73
2022/04/11 02:08:20;;;;;;;1.20;1.20;;;3.00;86.20;2.20;98574.00;;;;5117681;28;20196;-73
2022/04/11 02:10:49;;;;;;;1.67;1.57;;;3.00;88.50;2.30;98574.00;;;;5117362;28;20244;-73
2022/04/11 02:13:17;;;;;;;1.27;1.20;;;3.10;89.20;2.40;98572.00;;;;5116862;28;20213;-73
2022/04/11 02:15:43;;;;;;;2.00;1.33;;;3.20;90.30;2.40;98560.00;;;;5116680;28;20299;-73
2022/04/11 02:18:10;;;;;;;1.23;1.20;;;3.20;90.90;2.30;98558.00;;;;5116705;28;20674;-73
2022/04/11 02:20:36;;;;;;;1.70;1.60;;;3.20;91.10;2.10;98555.00;;;;5116532;28;20227;-73
2022/04/11 02:23:04;;;;;;;1.03;1.03;;;3.10;90.00;1.90;98561.00;;;;5116579;28;20632;-73
2022/04/11 02:25:34;;;;;;;1.50;1.40;;;2.90;90.20;2.00;98558.00;;;;5116473;28;20339;-74
2022/04/11 02:28:01;;;;;;;1.03;1.03;;;2.90;90.50;2.20;98544.00;;;;5116385;28;20251;-73
2022/04/11 02:30:28;;;;;;;0.90;0.90;;;2.90;90.70;2.30;98541.00;;;;5116348;28;20209;-73
2022/04/11 02:32:58;;;;;;;1.00;1.00;;;3.10;90.70;2.20;98541.00;;;;5116478;28;20220;-73
2022/04/11 02:35:25;;;;;;;1.00;1.00;;;3.10;91.00;2.30;98524.00;;;;5116383;28;20227;-73
2022/04/11 02:37:52;;;;;;;3.00;2.43;;;3.10;91.10;2.30;98540.00;;;;5116140;28;20226;-73
2022/04/11 02:40:19;;;;;;;0.90;0.90;;;3.00;90.60;2.30;98529.00;;;;5116198;28;20231;-73
2022/04/11 02:42:47;;;;;;;1.17;1.17;;;3.10;90.30;2.10;98525.00;;;;5098243;28;20797;-73
2022/04/11 02:45:15;;;;;;;1.20;1.20;;;3.00;88.70;2.10;98527.00;;;;5116156;28;20212;-73
2022/04/11 02:47:43;;;;;;;1.10;1.10;;;2.90;89.40;2.30;98505.00;;;;5116336;28;20197;-74
2022/04/11 02:50:10;;;;;;;1.33;1.30;;;3.10;89.50;2.30;98520.00;;;;5098070;28;20648;-73
2022/04/11 02:52:37;;;;;;;1.17;1.17;;;3.10;89.00;2.30;98507.00;;;;5116080;28;20622;-74
2022/04/11 02:55:05;;;;;;;1.17;1.17;;;3.10;88.70;2.30;98475.00;;;;5116001;28;20670;-74
2022/04/11 02:57:31;;;;;;;1.47;1.43;;;3.10;88.10;2.30;98519.00;;;;5115156;28;20249;-73
2022/04/11 02:59:58;;;;;;;2.00;1.47;;;3.10;88.60;2.20;98503.00;;;;5115841;28;20224;-74
2022/04/11 03:02:25;;;;;;;1.97;1.50;;;3.10;88.20;2.40;98513.00;;;;5115916;28;20242;-74
2022/04/11 03:04:54;;;;;;;2.30;1.37;;;3.10;89.10;2.40;98504.00;;;;5115779;28;20228;-75
2022/04/11 03:07:21;;;;;;;1.63;1.53;;;3.20;88.90;2.50;98499.00;;;;5115994;28;20217;-74
2022/04/11 03:09:48;;;;;;;1.13;1.13;;;3.30;89.10;2.50;98498.00;;;;5097833;28;20212;-75
2022/04/11 03:12:14;;;;;;;1.20;1.20;;;3.30;88.60;2.50;98494.00;;;;5115651;28;20233;-75
2022/04/11 03:14:41;;;;;;;1.63;1.53;;;3.20;88.50;2.40;98490.00;;;;5115661;28;20206;-74
2022/04/11 03:17:07;;;;;;;7.73;3.20;;;3.30;88.50;2.50;98497.00;;;;5115601;28;20252;-74
2022/04/11 03:19:34;;;;;;;0.80;0.80;;;3.20;88.50;2.40;98475.00;;;;5097451;28;20707;-73
2022/04/11 03:22:02;;;;;;;1.77;1.67;;;3.20;88.20;2.30;98425.00;;;;5115523;28;20193;-74
2022/04/11 03:24:29;;;;;;;0.93;0.93;;;3.10;87.80;2.30;98483.00;;;;5097539;28;20221;-74
2022/04/11 03:26:55;;;;;;;1.57;1.47;;;3.20;88.30;2.30;98481.00;;;;5115532;28;20592;-74
2022/04/11 03:29:22;;;;;;;1.00;1.00;;;3.10;88.80;2.50;98475.00;;;;5115365;28;20309;-74
2022/04/11 03:31:48;;;;;;;1.97;1.87;;;3.20;89.40;2.40;98481.00;;;;5115373;28;20239;-75
2022/04/11 03:34:17;;;;;;;1.87;1.77;;;3.20;89.80;2.40;98478.00;;;;5115258;28;20222;-74
2022/04/11 03:36:44;;;;;;;1.77;1.67;;;3.30;88.80;2.30;98481.00;;;;5115451;28;20200;-76
2022/04/11 03:39:11;;;;;;;1.47;1.20;;;3.10;88.30;2.30;98480.00;;;;5115103;28;20252;-73
2022/04/11 03:41:37;;;;;;;1.20;1.20;;;3.10;88.80;2.30;98482.00;;;;5115323;28;20291;-74
2022/04/11 03:44:05;;;;;;;1.30;1.20;;;3.10;89.10;2.20;98486.00;;;;5115138;28;20236;-74
2022/04/11 03:46:31;;;;;;;1.20;1.20;;;3.10;88.90;2.30;98481.00;;;;5115166;28;20193;-73
2022/04/11 03:48:58;;;;;;;1.17;1.00;;;3.20;89.30;2.20;98483.00;;;;5097188;28;20207;-75
2022/04/11 03:51:24;;;;;;;2.03;1.93;;;3.10;89.50;2.20;98486.00;;;;5114986;28;20296;-74
2022/04/11 03:53:51;;;;;;;1.43;1.33;;;3.10;90.20;2.30;98478.00;;;;5097221;28;20301;-74
2022/04/11 03:56:18;;;;;;;1.30;1.27;;;3.10;91.30;2.40;98476.00;;;;5097089;28;20228;-73
2022/04/11 03:58:47;;;;;;;2.43;1.93;;;3.10;92.20;2.40;98476.00;;;;5115236;28;20647;-74
2022/04/11 04:01:14;;;;;;;1.60;1.50;;;3.30;92.70;2.50;98487.00;;;;5115332;28;20223;-75
2022/04/11 04:03:41;;;;;;;1.50;1.13;;;3.30;92.60;2.50;98489.00;;;;5115158;28;20498;-75
2022/04/11 04:06:11;;;;;;;1.30;1.17;;;3.30;92.70;2.50;98474.00;;;;5115399;28;20201;-75
2022/04/11 04:08:38;;;;;;;1.53;1.43;;;3.30;92.60;2.50;98466.00;;;;5114972;28;20234;-74
2022/04/11 04:11:04;;;;;;;1.67;1.57;;;3.30;92.90;2.60;98473.00;;;;5115113;28;20692;-74
2022/04/11 04:13:34;;;;;;;3.60;2.30;;;3.30;93.00;2.50;98469.00;;;;5114954;28;20228;-74
2022/04/11 04:16:01;;;;;;;2.17;2.07;;;3.40;92.70;2.30;98466.00;;;;5114709;28;20645;-74
2022/04/11 04:18:27;;;;;;;0.80;0.80;;;3.30;92.60;2.40;98425.00;;;;5114667;28;20202;-74
2022/04/11 04:20:56;;;;;;;1.13;1.13;;;3.20;92.60;2.50;98461.00;;;;5096566;28;20643;-74
2022/04/11 04:23:23;;;;;;;0.97;0.97;;;3.20;92.60;2.50;98444.00;;;;5114619;28;20193;-73
2022/04/11 04:25:52;;;;;;;1.27;1.27;;;3.30;92.70;2.30;98436.00;;;;5114651;28;20225;-74
2022/04/11 04:28:19;;;;;;;1.33;1.33;;;3.20;92.20;2.40;98454.00;;;;5114648;28;20208;-75
2022/04/11 04:30:46;;;;;;;0.80;0.80;;;3.20;92.20;2.40;98445.00;;;;5114363;28;20303;-74
2022/04/11 04:33:15;;;;;;;1.13;1.13;;;3.20;92.30;2.40;98440.00;;;;5114624;28;20238;-73
2022/04/11 04:35:42;;;;;;;0.90;0.90;;;3.20;92.30;2.30;98448.00;;;;5096546;28;20232;-74
2022/04/11 04:38:11;;;;;;;1.70;1.60;;;3.20;92.00;2.30;98444.00;;;;5114481;28;20216;-74
2022/04/11 04:40:38;;;;;;;0.83;0.83;;;3.10;91.80;2.20;98433.00;;;;5114261;28;20361;-74
2022/04/11 04:43:06;;;;;;;2.83;1.40;;;3.10;91.70;2.20;98438.00;;;;5114348;28;20200;-74
2022/04/11 04:45:36;;;;;;;0.90;0.90;;;3.10;91.60;2.20;98452.00;;;;5096222;28;20358;-74
2022/04/11 04:48:07;;;;;;;1.93;1.83;;;3.10;91.80;2.10;98454.00;;;;5114450;28;20215;-75
2022/04/11 04:50:33;;;;;;;1.67;1.57;;;3.00;91.50;2.10;98446.00;;;;5096491;28;20197;-74
2022/04/11 04:53:00;;;;;;;1.00;1.00;;;3.00;91.80;2.10;98458.00;;;;5114480;28;20263;-74
2022/04/11 04:55:26;;;;;;;3.10;2.90;;;2.90;91.60;2.20;98458.00;;;;5114947;28;20204;-75
2022/04/11 04:57:53;;;;;;;2.67;2.47;;;3.00;91.50;2.10;98464.00;;;;5097585;28;20553;-75
2022/04/11 05:00:22;;;;;;;1.77;1.67;;;2.90;91.00;2.00;98449.00;;;;5122151;28;20229;-75
2022/04/11 05:02:49;;;;;;;3.37;2.67;;;2.80;91.40;2.00;98460.00;;;;5106953;28;20204;-75
2022/04/11 05:05:18;;;;;;;1.40;1.40;;;2.80;91.30;1.90;98451.00;;;;5100161;28;20290;-76
2022/04/11 05:07:47;;;;;;;2.60;2.40;;;2.80;91.30;1.90;98447.00;;;;5114192;28;20198;-75
2022/04/11 05:10:14;;;;;;;2.43;2.33;;;2.80;91.60;1.90;98454.00;;;;5114016;28;20220;-74
2022/04/11 05:12:43;;;;;;;2.57;2.40;;;2.70;91.60;1.90;98449.00;;;;5114029;28;20208;-74
2022/04/11 05:15:11;;;;;;;0.90;0.90;;;2.70;91.80;2.00;98448.00;;;;5113830;28;20246;-75
2022/04/11 05:17:38;;;;;;;4.43;1.47;;;2.70;91.80;2.00;98458.00;;;;5113884;28;20191;-74
2022/04/11 05:20:09;;;;;;;1.70;1.60;;;2.80;91.40;2.20;98448.00;;;;5114737;28;20229;-74
2022/04/11 05:22:37;;;;;;;1.20;1.20;;;2.90;92.00;2.00;98451.00;;;;5117517;28;20184;-74
2022/04/11 05:25:04;;;;;;;1.50;1.40;;;2.90;90.80;2.00;98459.00;;;;5117391;28;20274;-74
2022/04/11 05:27:32;;;;;;;2.00;1.90;;;2.80;90.80;2.00;98458.00;;;;5099420;28;20243;-74
2022/04/11 05:29:58;;;;;;;1.93;1.80;;;2.80;91.40;2.00;98458.00;;;;5117353;28;20232;-74
2022/04/11 05:32:25;;;;;;;2.77;2.47;;;2.80;91.60;2.10;98459.00;;;;5117229;28;20222;-74
2022/04/11 05:34:51;;;;;;;1.20;1.20;;;2.90;91.70;2.10;98454.00;;;;5117242;28;20288;-75
2022/04/11 05:37:18;;;;;;;1.50;1.40;;;2.90;91.60;2.10;98448.00;;;;5117166;28;20218;-74
2022/04/11 05:39:45;;;;;;;1.13;1.10;;;2.90;91.70;2.10;98446.00;;;;5117118;28;20311;-74
2022/04/11 05:42:11;;;;;;;1.00;1.00;;;2.90;91.10;2.10;98451.00;;;;5099344;28;20231;-74
2022/04/11 05:44:38;;;;;;;2.60;2.40;;;2.90;91.60;2.10;98454.00;;;;5117227;28;20207;-74
2022/04/11 05:47:05;;;;;;;1.20;1.20;;;3.00;91.70;2.30;98446.00;;;;5117101;28;20207;-75
2022/04/11 05:49:34;;;;;;;2.07;1.73;;;3.00;91.60;2.20;98449.00;;;;5098956;28;20228;-74
2022/04/11 05:52:01;;;;;;;1.17;1.17;;;3.10;91.00;2.30;98444.00;;;;5117090;28;20199;-75
2022/04/11 05:54:27;;;;;;;2.57;1.43;;;3.10;91.40;2.30;98444.00;;;;5116931;28;20232;-74
2022/04/11 05:56:55;;;;;;;3.80;2.47;;;3.10;91.20;2.40;98443.00;;;;5099043;28;20233;-75
2022/04/11 05:59:21;;;;;;;1.13;1.13;;;3.10;91.50;2.50;98445.00;;;;5116588;28;20713;-73
2022/04/11 06:01:51;;;;;;;1.97;1.87;;;3.20;91.20;2.40;98441.00;;;;5098626;28;20200;-75
2022/04/11 06:04:17;;;;;;;1.43;1.43;;;3.20;90.30;2.40;98444.00;;;;5116877;28;20192;-75
2022/04/11 06:06:44;;;;;;;1.27;1.27;;;3.20;90.70;2.40;98446.00;;;;5116686;28;20260;-75
2022/04/11 06:09:10;;;;;;;1.07;1.07;;;3.20;90.90;2.20;98439.00;;;;5116676;28;20247;-74
2022/04/11 06:11:37;;;;;;;2.00;1.67;;;3.00;91.00;2.20;98449.00;;;;5098539;28;20243;-74
2022/04/11 06:14:07;;;;;;;1.50;1.50;;;3.20;91.50;2.50;98442.00;;;;5116715;28;20200;-75
2022/04/11 06:16:33;;;;;;;1.13;1.13;;;3.20;92.60;2.60;98442.00;;;;5116561;28;20224;-75
2022/04/11 06:19:02;;;;;;;2.17;1.67;;;3.30;91.40;2.60;98441.00;;;;5098479;28;20257;-75
2022/04/11 06:21:29;;;;;;;1.63;1.57;;;3.40;90.80;2.70;98440.00;;;;5116600;28;20204;-74
2022/04/11 06:23:55;;;;;;;1.73;1.63;;;3.50;90.80;2.70;98454.00;;;;5116528;28;20247;-75
2022/04/11 06:26:22;;;;;;;1.33;1.07;;;3.50;90.50;2.80;98443.00;;;;5098536;28;20628;-75
2022/04/11 06:28:48;;;;;;;1.10;1.10;;;3.60;89.90;2.80;98436.00;;;;5116428;28;20224;-75
2022/04/11 06:31:16;;;;;;;4.20;2.40;;;3.60;89.80;2.90;98445.00;;;;5115314;28;20281;-73
2022/04/11 06:33:43;;;;;;;3.23;1.80;;;3.70;90.00;3.00;98443.00;;;;5116198;28;20235;-74
2022/04/11 06:36:09;;;;;;;2.00;1.83;;;3.80;90.00;3.10;98433.00;;;;5098321;28;20511;-74
2022/04/11 06:38:36;;;;;;;2.37;2.27;;;3.90;89.90;3.20;98444.00;;;;5098194;28;20597;-72
2022/04/11 06:41:03;;;;;;;1.73;1.63;;;4.00;90.60;3.30;98453.00;;;;5098302;28;20557;-72
2022/04/11 06:43:29;;;;;;;2.23;2.07;;;4.10;89.70;3.40;98441.00;;;;5116201;28;20261;-72
2022/04/11 06:45:56;;;;;;;1.30;1.30;;;4.10;89.30;3.40;98452.00;;;;5116208;28;20205;-72
2022/04/11 06:48:23;;;;;;;1.27;1.27;;;4.10;89.50;3.50;98444.00;;;;5116182;28;20529;-72
2022/04/11 06:50:53;;;;;;;2.90;2.30;;;4.30;89.80;3.60;98445.00;;;;5116078;28;20214;-72
2022/04/11 06:53:22;;;;;;;3.53;2.23;;;4.40;89.50;3.70;98439.00;;;;5115965;28;20229;-73
2022/04/11 06:55:48;;;;;;;1.20;1.20;;;4.50;89.50;3.80;98439.00;;;;5116015;28;20213;-73
2022/04/11 06:58:16;;;;;;;1.07;1.07;;;4.60;89.40;3.90;98448.00;;;;5116138;28;20285;-72
2022/04/11 07:00:43;;;;;;;0.90;0.90;;;4.70;89.40;4.00;98433.00;;;;5115699;28;20653;-72
2022/04/11 07:03:10;;;;;;;1.53;1.53;;;4.80;89.50;4.20;98436.00;;;;5115868;28;20273;-72
2022/04/11 07:05:37;;;;;;;1.93;1.47;;;4.90;89.80;4.30;98439.00;;;;5115847;28;20301;-72
2022/04/11 07:08:05;;;;;;;1.10;1.10;;;5.10;89.70;4.50;98436.00;;;;5098043;28;20227;-73
2022/04/11 07:10:31;;;;;;;1.70;1.60;;;5.20;89.60;4.70;98450.00;;;;5115659;28;20190;-73
2022/04/11 07:12:58;;;;;;;1.00;1.00;;;5.40;88.90;4.80;98439.00;;;;5115469;28;20297;-73
2022/04/11 07:15:26;;;;;;;1.40;1.30;;;5.50;88.30;4.90;98446.00;;;;5115758;28;20206;-73
2022/04/11 07:17:52;;;;;;;1.63;1.57;;;5.60;87.20;5.00;98445.00;;;;5097667;28;20292;-72
2022/04/11 07:20:19;;;;;;;1.13;1.13;;;5.70;86.40;5.10;98443.00;;;;5115553;28;20214;-72
2022/04/11 07:22:46;;;;;;;0.80;0.80;;;5.80;86.00;5.20;98441.00;;;;5097659;28;20238;-72
2022/04/11 07:25:13;;;;;;;1.13;1.10;;;5.90;85.10;5.30;98443.00;;;;5097637;28;20229;-72
2022/04/11 07:27:40;;;;;;;1.63;1.53;;;6.00;83.90;5.40;98442.00;;;;5115504;28;20226;-73
2022/04/11 07:30:08;;;;;;;1.73;1.63;;;6.20;82.50;5.60;98409.00;;;;5097765;28;20285;-72
2022/04/11 07:32:35;;;;;;;0.90;0.90;;;6.30;80.10;5.70;98432.00;;;;5115395;28;20586;-72
2022/04/11 07:35:01;;;;;;;0.90;0.90;;;6.40;78.40;5.70;98437.00;;;;5115505;28;20201;-73
2022/04/11 07:37:28;;;;;;;0.97;0.97;;;6.50;76.40;5.90;98439.00;;;;5097211;28;20732;-72
2022/04/11 07:39:55;;;;;;;1.20;1.20;;;6.60;74.50;6.10;98433.00;;;;5115121;28;20236;-73
2022/04/11 07:42:22;;;;;;;1.17;1.07;;;6.70;73.50;6.10;98437.00;;;;5114866;28;20233;-73
2022/04/11 07:44:48;;;;;;;1.00;1.00;;;6.80;72.40;6.20;98445.00;;;;5097330;28;20275;-73
2022/04/11 07:47:15;;;;;;;1.17;1.17;;;6.90;71.70;6.40;98451.00;;;;5115203;28;20204;-72
2022/04/11 07:49:41;;;;;;;1.00;1.00;;;7.00;71.20;6.40;98457.00;;;;5097132;28;20190;-72
2022/04/11 07:52:09;;;;;;;1.63;1.53;;;7.10;68.70;6.60;98442.00;;;;5115015;28;20198;-71
2022/04/11 07:54:35;;;;;;;3.90;1.07;;;7.30;67.80;6.70;98436.00;;;;5115072;28;20572;-73
2022/04/11 07:57:03;;;;;;;1.40;1.37;;;7.30;67.00;6.80;98448.00;;;;5115419;28;20224;-73
2022/04/11 07:59:29;;;;;;;0.90;0.90;;;7.40;65.80;7.00;98446.00;;;;5114878;28;20755;-73
2022/04/11 08:01:58;;;;;;;1.40;0.97;;;7.60;64.30;7.20;98447.00;;;;5114959;28;20190;-74
2022/04/11 08:04:25;;;;;;;1.60;1.50;;;7.70;64.00;7.20;98451.00;;;;5115126;28;20279;-74
2022/04/11 08:06:51;;;;;;;0.87;0.87;;;7.80;63.50;7.30;98448.00;;;;5115161;28;20211;-75
2022/04/11 08:09:18;;;;;;;1.23;1.23;;;8.00;63.20;7.30;98448.00;;;;5096857;28;20214;-73
2022/04/11 08:11:45;;;;;;;16.43;1.63;;;8.00;62.70;7.40;98446.00;;;;5115660;28;20198;-73
2022/04/11 08:14:15;;;;;;;1.43;1.23;;;8.10;62.10;7.60;98449.00;;;;5114942;28;20193;-72
2022/04/11 08:16:41;;;;;;;0.80;0.80;;;8.20;61.10;7.80;98446.00;;;;5115104;28;20222;-72
2022/04/11 08:19:08;;;;;;;1.00;1.00;;;8.30;60.30;7.80;98445.00;;;;5115477;28;20216;-74
2022/04/11 08:21:34;;;;;;;0.80;0.80;;;8.40;58.60;7.70;98435.00;;;;5114936;28;20281;-72
2022/04/11 08:24:01;;;;;;;1.07;1.07;;;8.50;58.60;7.90;98437.00;;;;5114464;28;20225;-72
2022/04/11 08:26:30;;;;;;;1.27;1.27;;;8.60;58.30;8.00;98425.00;;;;5096783;28;20235;-73
2022/04/11 08:28:56;;;;;;;1.03;1.03;;;8.60;57.50;8.10;98436.00;;;;5114619;28;20221;-73
2022/04/11 08:31:25;;;;;;;1.67;1.57;;;8.80;57.50;8.30;98433.00;;;;5114556;28;20215;-72
2022/04/11 08:33:52;;;;;;;1.03;1.03;;;8.90;56.50;8.30;98435.00;;;;5114526;28;20211;-72
2022/04/11 08:36:19;;;;;;;0.93;0.93;;;8.90;56.70;8.40;98440.00;;;;5096420;28;20320;-72
2022/04/11 08:38:46;;;;;;;1.07;1.07;;;9.00;56.60;8.60;98423.00;;;;5114393;28;20204;-73
2022/04/11 08:41:17;;;;;;;1.67;1.57;;;9.10;56.10;8.70;98430.00;;;;5114346;28;20232;-73
2022/04/11 08:43:44;;;;;;;1.37;1.37;;;9.30;55.10;8.80;98429.00;;;;5114376;28;20277;-75
2022/04/11 08:46:16;;;;;;;1.83;1.73;;;9.40;54.80;9.00;98433.00;;;;5096362;28;20194;-73
2022/04/11 08:48:46;;;;;;;0.60;0.60;;;9.50;53.80;9.10;98421.00;;;;5114185;28;20300;-73
2022/04/11 08:51:13;;;;;;;1.27;1.20;;;9.60;52.90;9.30;98425.00;;;;5114400;28;20190;-72
2022/04/11 08:53:40;;;;;;;0.80;0.80;;;9.80;51.70;9.30;98423.00;;;;5096519;28;20248;-72
2022/04/11 08:56:06;;;;;;;0.60;0.60;;;9.90;51.20;9.50;98428.00;;;;5113527;28;20194;-72
2022/04/11 08:58:33;;;;;;;0.90;0.90;;;10.00;50.80;9.50;98418.00;;;;5114079;28;20257;-72
2022/04/11 09:01:00;;;;;;;1.00;1.00;;;10.10;50.70;9.60;98426.00;;;;5113927;28;20229;-73
2022/04/11 09:03:28;;;;;;;0.90;0.90;;;10.20;50.50;9.70;98418.00;;;;5114087;28;20193;-72
2022/04/11 09:06:10;;;;;;;0.83;0.83;;;10.30;49.40;9.80;98416.00;;;;5113974;28;20637;-71
2022/04/11 09:08:39;;;;;;;1.13;1.13;;;10.40;49.40;9.90;98423.00;;;;5113831;28;20679;-71
2022/04/11 09:11:06;;;;;;;0.93;0.93;;;10.40;49.30;10.00;98414.00;;;;5113956;28;20251;-71
2022/04/11 09:13:52;;;;;;;2.40;2.20;;;10.60;48.20;10.20;98398.00;;;;5114504;28;20255;-72
2022/04/11 09:16:21;;;;;;;0.60;0.60;;;10.70;49.60;10.30;98406.00;;;;5095625;28;20596;-73
2022/04/11 09:18:52;;;;;;;0.90;0.90;;;10.80;48.30;10.40;98402.00;;;;5114886;28;20197;-73
2022/04/11 09:21:22;;;;;;;0.80;0.80;;;11.00;46.90;10.40;98407.00;;;;5116695;28;20229;-72
2022/04/11 09:23:51;;;;;;;0.80;0.80;;;11.00;47.10;10.50;98407.00;;;;5115571;28;20221;-73
2022/04/11 09:26:21;;;;;;;0.80;0.80;;;11.10;45.80;10.60;98402.00;;;;5119905;28;20557;-75
2022/04/11 09:29:01;;;;;;;1.13;1.13;;;11.20;44.40;10.70;98404.00;;;;5118886;28;20248;-74
2022/04/11 09:31:28;;;;;;;0.87;0.87;;;11.40;46.00;10.90;98393.00;;;;5096510;28;20266;-74
2022/04/11 09:33:55;;;;;;;0.80;0.80;;;11.50;45.90;11.00;98392.00;;;;5113991;28;20602;-72
2022/04/11 09:36:23;;;;;;;0.60;0.60;;;11.60;44.50;11.00;98399.00;;;;5113603;28;20213;-73
2022/04/11 09:38:58;;;;;;;1.00;1.00;;;11.70;44.80;11.30;98390.00;;;;5113698;28;20290;-74
2022/04/11 09:41:29;;;;;;;0.67;0.67;;;11.80;43.80;11.30;98391.00;;;;5113519;28;20237;-73
2022/04/11 09:43:56;;;;;;;1.50;1.37;;;11.90;42.40;11.40;98390.00;;;;5095481;28;20547;-73
2022/04/11 09:46:43;;;;;;;1.30;1.20;;;12.00;43.70;11.70;98357.00;;;;5095651;28;20249;-73
2022/04/11 09:49:12;;;;;;;0.80;0.80;;;12.20;42.70;11.80;98395.00;;;;5095336;28;20537;-74
2022/04/11 09:52:07;;;;;;;0.90;0.90;;;12.30;42.10;11.90;98377.00;;;;5113357;28;20630;-74
2022/04/11 09:54:36;;;;;;;1.20;1.20;;;12.40;40.60;11.90;98363.00;;;;5113443;28;20214;-74
2022/04/11 09:57:04;;;;;;;0.70;0.70;;;;;12.00;98370.00;;;;5095713;28;20194;-74
2022/04/11 09:59:32;;;;;;;0.70;0.70;;;12.50;40.80;12.20;98355.00;;;;5113152;28;20301;-74
2022/04/11 10:01:59;;;;;;;0.70;0.70;;;12.70;41.60;12.30;98375.00;;;;5113442;28;20194;-75
2022/04/11 10:04:27;;;;;;;22.50;1.37;;;12.80;38.00;12.20;98373.00;;;;5113342;28;20233;-75
2022/04/11 10:06:55;;;;;;;1.10;1.03;;;12.80;37.60;12.60;98364.00;;;;5115556;28;20202;-72
2022/04/11 10:09:23;;;;;;;0.73;0.73;;;13.00;38.00;12.70;98362.00;;;;5116703;28;20281;-72
2022/04/11 10:11:55;;;;;;;0.80;0.80;;;13.30;39.50;12.70;98359.00;;;;5116711;28;20190;-72
2022/04/11 10:14:24;;;;;;;0.60;0.60;;;13.30;38.10;12.90;98352.00;;;;5098566;28;20250;-72
2022/04/11 10:16:53;;;;;;;0.70;0.70;;;13.40;37.80;13.20;98343.00;;;;5116620;28;20225;-72
2022/04/11 10:19:26;;;;;;;0.60;0.60;;;;;13.30;98354.00;;;;5116545;28;20206;-72
2022/04/11 10:21:58;;;;;;;0.50;0.50;;;13.80;42.70;13.50;98344.00;;;;5098790;28;20499;-72
2022/04/11 10:24:33;;;;;;;0.90;0.90;;;13.90;35.10;13.40;98352.00;;;;5098469;28;20214;-72
2022/04/11 10:27:18;;;;;;;0.60;0.60;;;14.00;35.70;13.60;98349.00;;;;5116488;28;20193;-72
2022/04/11 10:29:46;;;;;;;4.13;1.67;;;14.10;34.30;13.60;98338.00;;;;5098401;28;20271;-73
2022/04/11 10:32:14;;;;;;;1.43;0.90;;;14.20;35.10;13.80;98335.00;;;;5116440;28;20194;-74
2022/04/11 10:34:50;;;;;;;0.50;0.50;;;14.30;33.10;13.90;98336.00;;;;5116281;28;20305;-73
2022/04/11 10:37:23;;;;;;;0.60;0.60;;;14.40;34.60;13.90;98334.00;;;;5098306;28;20229;-75
2022/04/11 10:39:50;;;;;;;1.67;1.57;;;14.50;35.50;14.20;98335.00;;;;5116097;28;20333;-72
2022/04/11 10:42:24;;;;;;;0.70;0.70;;;14.70;34.70;14.30;98327.00;;;;5098254;28;20209;-75
2022/04/11 10:44:54;;;;;;;1.00;1.00;;;14.80;32.70;14.40;98339.00;;;;5116330;28;20205;-76
2022/04/11 10:47:33;;;;;;;0.77;0.77;;;14.90;34.20;14.50;98326.00;;;;5116204;28;20194;-75
2022/04/11 10:50:32;;;;;;;0.50;0.50;;;15.00;32.40;14.20;98328.00;;;;5116139;28;20233;-73
2022/04/11 10:53:17;;;;;;;1.43;1.37;;;15.00;32.00;14.50;98326.00;;;;5116087;28;20198;-74
2022/04/11 10:56:00;;;;;;;0.60;0.60;;;15.10;32.20;14.60;98323.00;;;;5116062;28;20216;-75
2022/04/11 10:58:56;;;;;;;0.80;0.80;;;15.20;33.30;14.80;98319.00;;;;5115921;28;20226;-74
2022/04/11 11:01:59;;;;;;;0.70;0.70;;;15.30;34.10;15.00;98319.00;;;;5068771;28;20233;-74
2022/04/11 11:04:32;;;;;;;0.80;0.80;;;15.50;31.50;15.00;98310.00;;;;5115896;28;20296;-72
2022/04/11 11:07:24;;;;;;;0.57;0.57;;;15.50;30.20;15.20;98306.00;;;;5116047;28;20250;-72
2022/04/11 11:09:58;;;;;;;1.20;1.07;;;15.70;28.30;15.30;98302.00;;;;5115773;28;20295;-72
2022/04/11 11:12:25;;;;;;;0.77;0.77;;;15.70;26.90;15.40;98301.00;;;;5115678;28;20244;-72